WAT4203 LGTS-LGLM
Flight info
| Callsign | WAT4203 |
|---|---|
| Flight time | N/A |
| Altitude | 15000 |
| Route | ARNAS M603 PEREN |
| Aircraft | A320/M-SDE3FGHIRWY/LB1 |
Departure
| Time | 2026-05-07 13:01 |
|---|---|
| Airport | Thessaloniki Macedonia International Airport (LGTS) |
Arrival
| Time | N/A |
|---|---|
| Airport | Limnos Airport (LGLM) |
| Time | Latitude | Longitude | Altitude | Speed | Heading |
|---|---|---|---|---|---|
| 2026-05-07 12:48 | 40.52322 | 22.97575 | 28 ft | 0 kts | 45° |
| 2026-05-07 12:53 | 40.52318 | 22.97570 | 28 ft | 2 kts | 46° |
| 2026-05-07 12:54 | 40.52305 | 22.97551 | 28 ft | 3 kts | 55° |
| 2026-05-07 12:54 | 40.52295 | 22.97529 | 28 ft | 3 kts | 71° |
| 2026-05-07 12:54 | 40.52292 | 22.97505 | 28 ft | 3 kts | 104° |
| 2026-05-07 12:54 | 40.52297 | 22.97489 | 28 ft | 1 kts | 135° |
| 2026-05-07 12:55 | 40.52300 | 22.97485 | 28 ft | 0 kts | 135° |
| 2026-05-07 12:56 | 40.52288 | 22.97501 | 28 ft | 7 kts | 135° |
| 2026-05-07 12:57 | 40.52223 | 22.97586 | 28 ft | 16 kts | 135° |
| 2026-05-07 12:57 | 40.52131 | 22.97680 | 28 ft | 18 kts | 140° |
| 2026-05-07 12:57 | 40.52038 | 22.97796 | 29 ft | 19 kts | 135° |
| 2026-05-07 12:57 | 40.51980 | 22.97955 | 29 ft | 20 kts | 103° |
| 2026-05-07 12:58 | 40.51945 | 22.98144 | 29 ft | 22 kts | 104° |
| 2026-05-07 12:58 | 40.51907 | 22.98345 | 29 ft | 23 kts | 103° |
| 2026-05-07 12:58 | 40.51869 | 22.98553 | 29 ft | 22 kts | 103° |
| 2026-05-07 12:58 | 40.51827 | 22.98696 | 28 ft | 11 kts | 143° |
| 2026-05-07 12:59 | 40.51766 | 22.98700 | 29 ft | 8 kts | 192° |
| 2026-05-07 12:59 | 40.51720 | 22.98682 | 29 ft | 6 kts | 205° |
| 2026-05-07 12:59 | 40.51692 | 22.98646 | 29 ft | 6 kts | 238° |
| 2026-05-07 12:59 | 40.51690 | 22.98596 | 28 ft | 6 kts | 281° |
| 2026-05-07 13:00 | 40.51715 | 22.98468 | 28 ft | 40 kts | 284° |
| 2026-05-07 13:00 | 40.51845 | 22.97777 | 29 ft | 112 kts | 284° |
| 2026-05-07 13:00 | 40.52080 | 22.96543 | 30 ft | 164 kts | 284° |
| 2026-05-07 13:00 | 40.52377 | 22.95023 | 550 ft | 169 kts | 285° |
| 2026-05-07 13:01 | 40.52702 | 22.93521 | 1251 ft | 172 kts | 287° |